Details From OIZC - Chah Bahar
To OPGD - Gwadar
Flight Number -
Tags Routegen Generated
Created
Modified
Stats Distance 106 nm / 196 km
Max Altitude 40,000 ft / 12,192 m
Waypoints 7
Social Downloads 0
Likes 0
Share VATSIM

Download

Looking for another format? Having issues loading an existing format? Contact us
Advertisement - Login to hide

Notes

Departing runway 9 OIZC. Arriving runway 6 OPGD. Advanced Generation Settings: Turn accuracy: 20 Altitude: 40000ft Smoothed angles: True Runway changes allowed: True Calculation order: Arrival --> Departure --> Intermediates Multipass intermediates: True

Route

OIZC +25.44_+060.48 +25.35_+061.15 +25.20_+062.13 +25.19_+062.19 +25.20_+062.25 OPGD

ID Type Via Altitude (ft/m) Position (lat/lon) Dist (leg/tot) Name
O OIZC APT - 0 / 0 25.44511 / 60.40313 - / 0 nm
+25.44_+060.48 LATLON - 40,000 / 12,192 25.44392 / 60.48325 4 / 4 nm
+25.35_+061.15 LATLON - 40,000 / 12,192 25.34651 / 61.15239 36 / 41 nm
+25.20_+062.13 LATLON - 4,400 / 1,341 25.20156 / 62.12602 53 / 94 nm
+25.19_+062.19 LATLON - 2,150 / 655 25.18908 / 62.18849 3 / 98 nm
+25.20_+062.25 LATLON - 670 / 204 25.19669 / 62.25192 3 / 101 nm
O OPGD APT - 0 / 0 25.23017 / 62.32283 4 / 106 nm

Altitude Profile

Advertisement - Login to hide

OIZC

Details ICAO OIZC (ZBR)
Name Chabahar Konarak Airport
Region Iran
Timezone Asia/Tehran (UTC+3.5)
Stats Elevation 42 ft / 13 m (AMSL)
Location 25.443400° 60.382100°
Runways 2
Magnetic Variation 1.731° E

METAR

Not found

TAF

TAF OIZC 190530Z 1906/2012 06008KT 7000 NSC

Decode

Departure Runways

ID Width Length Bearing (true/mag) Surface Threshold Overrun Markings Lighting
09L 150 ft / 46 m 12,492 ft / 3,808 m 90.93° / 89.20° ASPHALT 0 ft / 0 m 1,181 ft / 360 m APP EDGE THRESHOLD
09R 150 ft / 46 m 9,829 ft / 2,996 m 90.93° / 89.20° ASPHALT 0 ft / 0 m 1,181 ft / 360 m APP
27L 150 ft / 46 m 9,829 ft / 2,996 m 270.94° / 269.21° ASPHALT 0 ft / 0 m 1,181 ft / 360 m APP
27R 150 ft / 46 m 12,492 ft / 3,808 m 270.94° / 269.21° ASPHALT 0 ft / 0 m 1,181 ft / 360 m APP EDGE THRESHOLD

OPGD

Details ICAO OPGD (GWD)
Name GWADAR INTL
Region Pakistan
Timezone Asia/Karachi (UTC+5.0)
Stats Elevation 36 ft / 11 m (AMSL)
Location 25.233300° 62.329500°
Runways 1
Magnetic Variation 1.551° E

METAR

Not found

TAF

TAF OPGD 190330Z 1906/2006 03008KT 6000 SCT030 FM191800 18005KT 5000 HZ SCT030 TEMPO 2000/2004 23005KT 3000 FU NSC

Decode

Destination Runways

ID Width Length Bearing (true/mag) Surface Threshold Overrun Markings Lighting
06 75 ft / 23 m 4,999 ft / 1,524 m 62.45° / 60.90° ASPHALT 0 ft / 0 m 1,532 ft / 467 m UK-APP
24 75 ft / 23 m 4,999 ft / 1,524 m 242.45° / 240.90° ASPHALT 0 ft / 0 m 203 ft / 62 m UK-APP

Popular Alternatives